createdAt,value
2022-12-15T00:04:28.872Z,3.9
2022-12-15T00:09:01.291Z,5.5
2022-12-15T00:14:07.699Z,2.3
2022-12-15T00:19:24.200Z,3.2
2022-12-15T00:24:30.473Z,7.0
2022-12-15T00:29:37.066Z,7.8
2022-12-15T00:34:33.439Z,4.4
2022-12-15T00:39:49.829Z,6.0
2022-12-15T00:45:16.245Z,2.7
2022-12-15T00:50:02.638Z,6.1
2022-12-15T00:55:53.191Z,3.5
2022-12-15T01:00:05.623Z,3.4
2022-12-15T01:05:12.096Z,2.4
2022-12-15T01:10:28.475Z,5.1
2022-12-15T01:15:34.851Z,3.8
2022-12-15T01:20:41.260Z,4.8
2022-12-15T01:25:47.617Z,5.3
2022-12-15T01:31:18.104Z,5.4
2022-12-15T01:36:00.591Z,2.4
2022-12-15T01:40:56.919Z,6.0
2022-12-15T01:47:15.531Z,4.4
2022-12-15T01:51:19.720Z,3.4
2022-12-15T01:56:26.114Z,4.2
2022-12-15T02:01:32.569Z,5.3
2022-12-15T02:06:28.871Z,4.1
2022-12-15T02:12:05.266Z,3.8
2022-12-15T02:16:51.714Z,5.2
2022-12-15T02:22:42.315Z,4.6
2022-12-15T02:27:03.679Z,7.3
2022-12-15T02:32:11.581Z,5.0
2022-12-15T02:37:17.933Z,4.3
2022-12-15T02:42:14.322Z,2.9
2022-12-15T02:47:30.687Z,4.9
2022-12-15T02:52:27.051Z,3.1
2022-12-15T02:57:33.910Z,4.4
2022-12-15T03:02:50.251Z,4.6
2022-12-15T03:07:56.578Z,4.9
2022-12-15T03:13:17.014Z,5.2
2022-12-15T03:17:59.321Z,3.6
2022-12-15T03:23:15.738Z,2.7
2022-12-15T03:28:12.083Z,2.1
2022-12-15T03:33:18.493Z,3.5
2022-12-15T03:38:24.853Z,4.2
2022-12-15T03:43:41.342Z,4.0
2022-12-15T03:48:37.726Z,1.8
2022-12-15T03:53:44.102Z,4.4
2022-12-15T03:59:00.519Z,3.3
2022-12-15T04:04:26.940Z,4.2
2022-12-15T04:09:13.259Z,5.7
2022-12-15T04:14:39.683Z,5.4
2022-12-15T04:19:26.032Z,5.0
2022-12-15T04:24:32.658Z,3.5
2022-12-15T04:29:39.124Z,5.4
2022-12-15T04:34:45.534Z,5.8
2022-12-15T04:39:51.930Z,6.0
2022-12-15T04:44:58.349Z,4.1
2022-12-15T04:50:03.677Z,4.6
2022-12-15T04:55:11.120Z,5.6
2022-12-15T05:00:37.555Z,4.6
2022-12-15T05:05:24.094Z,5.1
2022-12-15T05:10:30.698Z,5.9
2022-12-15T05:15:38.015Z,3.5
2022-12-15T05:20:44.327Z,4.4
2022-12-15T05:25:40.711Z,4.9
2022-12-15T05:30:57.135Z,2.7
2022-12-15T05:36:27.514Z,5.8
2022-12-15T05:41:09.921Z,2.8
2022-12-15T05:46:41.708Z,2.8
2022-12-15T05:51:24.019Z,5.2
2022-12-15T05:56:30.425Z,4.8
2022-12-15T06:01:36.882Z,4.6
2022-12-15T06:06:43.159Z,4.7
2022-12-15T06:11:49.558Z,5.6
2022-12-15T06:16:50.168Z,2.9
2022-12-15T06:22:02.276Z,6.6
2022-12-15T06:26:58.790Z,5.6
2022-12-15T06:32:39.239Z,4.9
2022-12-15T06:37:21.565Z,5.6
2022-12-15T06:42:27.962Z,2.0
2022-12-15T06:47:38.342Z,3.8
2022-12-15T06:52:40.708Z,6.7
2022-12-15T06:58:07.202Z,2.4
2022-12-15T07:02:43.718Z,4.5
2022-12-15T07:07:49.936Z,4.2
2022-12-15T07:13:30.946Z,4.8
2022-12-15T07:18:02.717Z,5.2
2022-12-15T07:23:19.483Z,6.2
2022-12-15T07:28:54.247Z,4.4
2022-12-15T07:33:21.962Z,8.2
2022-12-15T07:38:38.362Z,6.8
2022-12-15T07:43:48.785Z,2.8
2022-12-15T07:48:51.279Z,7.5
2022-12-15T07:53:59.054Z,4.9
2022-12-15T08:04:11.413Z,3.7
2022-12-15T08:09:18.785Z,6.6
2022-12-15T08:14:25.535Z,1.1
2022-12-15T08:19:23.227Z,2.7
2022-12-15T08:24:39.549Z,6.3
2022-12-15T08:29:51.489Z,3.7
2022-12-15T08:34:42.314Z,5.8
2022-12-15T08:40:00.279Z,7.4
2022-12-15T08:45:06.671Z,6.5
2022-12-15T08:50:13.079Z,6.2
2022-12-15T08:55:22.469Z,5.4
2022-12-15T09:00:27.378Z,6.5
2022-12-15T09:05:33.915Z,5.7
2022-12-15T09:10:40.252Z,6.8
2022-12-15T09:21:18.675Z,8.6
2022-12-15T09:26:26.588Z,4.8
2022-12-15T09:31:09.007Z,8.9
2022-12-15T09:36:15.325Z,7.4
2022-12-15T09:41:21.844Z,4.2
2022-12-15T09:46:28.324Z,13.8
2022-12-15T09:51:34.608Z,10.8
2022-12-15T09:56:41.328Z,7.4
2022-12-15T10:01:47.413Z,9.3
2022-12-15T10:06:53.739Z,5.5
2022-12-15T10:12:00.180Z,4.2
2022-12-15T10:17:06.529Z,13.3
2022-12-15T10:22:14.496Z,7.7
2022-12-15T10:27:20.947Z,8.1
2022-12-15T10:32:28.873Z,7.5
2022-12-15T10:37:39.274Z,10.7
2022-12-15T10:42:41.824Z,6.5
2022-12-15T10:47:48.165Z,3.7
2022-12-15T10:52:54.529Z,15.1
2022-12-15T10:58:01.502Z,10.5
2022-12-15T11:03:07.982Z,6.9
2022-12-15T11:08:14.369Z,11.2
2022-12-15T11:13:20.481Z,3.4
2022-12-15T11:18:26.686Z,5.3
2022-12-15T11:23:34.765Z,6.4
2022-12-15T11:29:04.635Z,4.0
2022-12-15T11:33:46.988Z,14.9
2022-12-15T11:38:53.551Z,17.2
2022-12-15T11:44:04.306Z,15.0
2022-12-15T11:49:06.327Z,14.9
2022-12-15T11:54:34.226Z,19.0
2022-12-15T11:59:20.581Z,15.0
2022-12-15T12:04:30.998Z,18.7
2022-12-15T12:09:33.338Z,7.1
2022-12-15T12:14:43.722Z,8.1
2022-12-15T12:19:50.809Z,14.6
2022-12-15T12:24:52.498Z,8.7
2022-12-15T12:30:28.506Z,13.4
2022-12-15T12:35:33.455Z,12.3
2022-12-15T12:40:14.814Z,12.6
2022-12-15T12:45:21.158Z,12.6
2022-12-15T12:50:31.534Z,13.0
2022-12-15T12:55:33.927Z,12.2
2022-12-15T13:00:43.942Z,13.9
2022-12-15T13:05:50.542Z,16.4
2022-12-15T13:10:56.777Z,16.4
2022-12-15T13:16:07.116Z,12.6
2022-12-15T13:21:35.103Z,13.9
2022-12-15T13:26:17.967Z,14.0
2022-12-15T13:31:24.475Z,14.7
2022-12-15T13:36:31.661Z,11.7
2022-12-15T13:46:43.448Z,15.7
2022-12-15T13:51:52.374Z,10.9
2022-12-15T13:57:26.810Z,14.1
2022-12-15T14:02:05.232Z,13.6
2022-12-15T14:07:11.525Z,11.8
2022-12-15T14:12:19.470Z,10.3
2022-12-15T14:17:29.903Z,11.7
2022-12-15T14:22:57.880Z,13.1
2022-12-15T14:27:40.235Z,13.4
2022-12-15T14:33:25.196Z,12.6
2022-12-15T14:38:28.157Z,11.8
2022-12-15T14:43:24.505Z,11.8
2022-12-15T14:48:53.491Z,14.4
2022-12-15T14:53:47.540Z,14.7
2022-12-15T14:58:43.918Z,14.7
2022-12-15T15:03:59.520Z,9.5
2022-12-15T15:09:06.904Z,15.3
2022-12-15T15:14:41.313Z,9.5
2022-12-15T15:24:29.611Z,10.3
2022-12-15T15:29:59.015Z,12.1
2022-12-15T15:35:02.431Z,15.2
2022-12-15T15:39:38.792Z,14.9
2022-12-15T15:44:55.263Z,17.2
2022-12-15T15:50:01.667Z,15.8
2022-12-15T15:55:08.070Z,14.8
2022-12-15T16:00:14.412Z,15.0
2022-12-15T16:05:20.795Z,17.9
2022-12-15T16:10:47.221Z,17.7
2022-12-15T16:15:23.512Z,11.8
2022-12-15T16:20:39.947Z,11.8
2022-12-15T16:26:10.501Z,13.6
2022-12-15T16:30:52.774Z,15.7
2022-12-15T16:35:59.072Z,16.8
2022-12-15T16:41:05.483Z,12.9
2022-12-15T16:46:11.897Z,13.8
2022-12-15T16:51:18.207Z,15.8
2022-12-15T16:56:44.676Z,12.5
2022-12-15T17:01:34.232Z,12.5
2022-12-15T17:07:01.444Z,10.2
2022-12-15T17:11:43.780Z,11.0
2022-12-15T17:16:50.168Z,12.0
2022-12-15T17:21:46.504Z,12.3
2022-12-15T17:27:02.931Z,13.8
2022-12-15T17:32:09.329Z,12.7
2022-12-15T17:37:04.684Z,12.2
2022-12-15T17:42:22.088Z,12.0
2022-12-15T17:47:52.580Z,11.6
2022-12-15T17:52:58.979Z,11.2
2022-12-15T17:57:41.320Z,13.5
2022-12-15T18:02:47.988Z,15.8
2022-12-15T18:07:54.158Z,13.5
2022-12-15T18:14:12.046Z,11.7
2022-12-15T18:19:07.996Z,15.5
2022-12-15T18:23:28.599Z,17.0
2022-12-15T18:28:20.664Z,10.0
2022-12-15T18:33:27.042Z,14.7
2022-12-15T18:38:33.441Z,11.9
2022-12-15T18:44:03.831Z,16.6
2022-12-15T18:48:46.168Z,12.3
2022-12-15T18:53:52.587Z,12.5
2022-12-15T18:58:58.955Z,11.7
2022-12-15T19:04:05.344Z,14.0
2022-12-15T19:10:06.956Z,17.4
2022-12-15T19:14:55.081Z,14.8
2022-12-15T19:20:00.634Z,12.8
2022-12-15T19:25:07.034Z,15.4
2022-12-15T19:30:13.404Z,13.2
2022-12-15T19:35:43.926Z,18.6
2022-12-15T19:41:10.612Z,12.0
2022-12-15T19:45:53.086Z,13.1
2022-12-15T19:50:39.290Z,15.5
2022-12-15T19:55:45.662Z,13.4
2022-12-15T20:00:52.115Z,13.8
2022-12-15T20:05:58.503Z,15.4
2022-12-15T20:11:24.880Z,14.9
2022-12-15T20:16:01.320Z,13.4
2022-12-15T20:21:22.069Z,12.9
2022-12-15T20:26:44.143Z,12.0
2022-12-15T20:31:54.712Z,14.8
2022-12-15T20:36:58.837Z,15.3
2022-12-15T20:41:45.059Z,13.1
2022-12-15T20:46:51.461Z,14.1
2022-12-15T20:51:57.844Z,14.5
2022-12-15T20:57:04.269Z,11.9
2022-12-15T21:02:11.054Z,12.9
2022-12-15T21:07:17.235Z,12.3
2022-12-15T21:12:13.732Z,11.9
2022-12-15T21:17:30.123Z,11.1
2022-12-15T21:22:40.518Z,12.3
2022-12-15T21:27:42.907Z,11.8
2022-12-15T21:32:49.275Z,11.6
2022-12-15T21:37:55.656Z,13.2
2022-12-15T21:43:02.763Z,9.7
2022-12-15T21:48:09.170Z,9.9
2022-12-15T21:53:15.577Z,14.0
2022-12-15T21:58:22.035Z,14.0
2022-12-15T22:08:24.773Z,14.8
2022-12-15T22:18:51.625Z,9.2
2022-12-15T22:24:22.021Z,14.3
2022-12-15T22:29:00.434Z,12.2
2022-12-15T22:34:10.848Z,12.5
2022-12-15T22:39:08.083Z,12.8
2022-12-15T22:44:19.590Z,13.9
2022-12-15T22:49:15.980Z,13.8
2022-12-15T22:54:35.348Z,17.8
2022-12-15T22:59:38.745Z,16.0
2022-12-15T23:04:45.222Z,18.0
2022-12-15T23:09:55.580Z,15.2
2022-12-15T23:14:58.092Z,17.9
2022-12-15T23:19:54.486Z,17.5
2022-12-15T23:25:14.885Z,22.7
2022-12-15T23:30:17.920Z,17.5
2022-12-15T23:35:24.412Z,21.2
2022-12-15T23:40:30.828Z,20.6
2022-12-15T23:46:01.285Z,18.8
2022-12-15T23:50:43.646Z,20.6
2022-12-15T23:55:50.029Z,23.0
